Flight Track Log - Related Links

Times and Time Zones

All times are in EDT time to prevent confusion due to time zone crossing. See the N6045S flight status page for this flight to view local times or setup timezone preferences in your user account.

Time Position Orientation Groundspeed Altitude Reporting Facility
EDT Latitude Longitude Course Direction KTS MPH feet Rate Location/Type
Tue 06:44:31 PM 43.1047 -76.0947 133° Southeast 125 144 1,000  Level Boston Center
Tue 06:45:20 PM 43.0808 -76.0592 133° Southeast 148 170 2,500 1,793 Climbing Boston Center
Tue 06:47:15 PM 43.0272 -75.9736 131° Southeast 155 178 5,900 1,783 Climbing Boston Center
Tue 06:48:15 PM 42.9992 -75.9294 131° Southeast 155 178 7,700 1,700 Climbing Boston Center
Tue 06:49:15 PM 42.9694 -75.8822 131° Southeast 160 184 9,300 1,550 Climbing Boston Center
Tue 06:50:15 PM 42.9394 -75.8381 133° Southeast 160 184 10,800 1,400 Climbing Boston Center
Tue 06:51:15 PM 42.9078 -75.7881 131° Southeast 166 191 12,100 1,300 Climbing Boston Center
Tue 06:52:15 PM 42.8756 -75.7411 133° Southeast 171 197 13,400 1,300 Climbing Boston Center
Tue 06:53:15 PM 42.8458 -75.6914 129° Southeast 171 197 14,700 1,250 Climbing Boston Center
Tue 06:54:15 PM 42.8139 -75.6442 133° Southeast 171 197 15,900 1,150 Climbing Boston Center
Tue 06:55:15 PM 42.7858 -75.5975 129° Southeast 166 191 17,000 800 Climbing Boston Center
Tue 06:56:15 PM 42.7539 -75.5506 133° Southeast 166 191 17,500 250 Climbing Boston Center
Tue 06:57:15 PM 42.7158 -75.4922 132° Southeast 185 213 17,500  Level Boston Center
Tue 06:58:15 PM 42.6717 -75.4250 132° Southeast 210 242 17,500  Level Boston Center
Tue 06:59:15 PM 42.6275 -75.3581 132° Southeast 228 262 17,500  Level Boston Center
Tue 07:00:15 PM 42.5817 -75.2853 131° Southeast 233 268 17,500  Level Boston Center
Tue 07:01:15 PM 42.5372 -75.2186 132° Southeast 239 275 17,500  Level Boston Center
Tue 07:02:15 PM 42.4931 -75.1489 131° Southeast 244 281 17,500  Level Boston Center
Tue 07:03:15 PM 42.4467 -75.0822 133° Southeast 244 281 17,500  Level Boston Center
Tue 07:04:15 PM 42.4006 -75.0100 131° Southeast 244 281 17,500  Level Boston Center
Tue 07:05:15 PM 42.3561 -74.9436 132° Southeast 244 281 17,500 -50 Level Boston Center
Tue 07:06:15 PM 42.3097 -74.8714 131° Southeast 244 281 17,400 -50 Descending Boston Center
Tue 07:07:15 PM 42.2653 -74.8025 131° Southeast 249 287 17,400  Level Boston Center
Tue 07:08:15 PM 42.2189 -74.7361 133° Southeast 249 287 17,400  Level Boston Center
Tue 07:09:15 PM 42.1722 -74.6672 132° Southeast 249 287 17,400  Level Boston Center
Tue 07:10:15 PM 42.1278 -74.5983 131° Southeast 249 287 17,400  Level Boston Center
Tue 07:11:15 PM 42.0811 -74.5297 132° Southeast 249 287 17,400 50 Level Boston Center
Tue 07:12:15 PM 42.0344 -74.4583 131° Southeast 249 287 17,500 50 Climbing Boston Center
Tue 07:13:15 PM 41.9836 -74.3839 133° Southeast 249 287 17,500  Level Boston Center
Tue 07:14:15 PM 41.9431 -74.3214 131° Southeast 249 287 17,500 -250 Level Boston Center
Tue 07:15:15 PM 41.8919 -74.2444 132° Southeast 249 287 17,000 -800 Descending Boston Center
Tue 07:16:15 PM 41.8472 -74.1792 133° Southeast 254 292 15,900 -1,100 Descending Boston Center
Tue 07:17:15 PM 41.8003 -74.1111 133° Southeast 249 287 14,800 -1,450 Descending Boston Center
Tue 07:18:15 PM 41.7494 -74.0344 132° Southeast 249 287 13,000 -1,550 Descending Boston Center
Tue 07:19:15 PM 41.7044 -73.9694 133° Southeast 249 287 11,700 -1,350 Descending Boston Center
Tue 07:20:15 PM 41.6533 -73.8958 133° Southeast 249 287 10,300 -1,400 Descending Boston Center
Tue 07:21:15 PM 41.6083 -73.8283 132° Southeast 249 287 8,900 -1,304 Descending Boston Center
Tue 07:22:10 PM 41.5667 -73.7667 132° Southeast 241 277 7,800 -1,304 Descending New TRACON
Tue 07:23:10 PM 41.5167 -73.7000 135° Southeast 236 272 6,400 -1,350 Descending New TRACON
Tue 07:24:10 PM 41.4833 -73.6333 124° Southeast 229 264 5,100 -1,250 Descending New TRACON
Tue 07:25:10 PM 41.4333 -73.6000 153° Southeast 200 230 3,900 -1,050 Descending New TRACON
Tue 07:26:10 PM 41.3833 -73.5833 166° South 184 212 3,000 -842 Descending New TRACON
Tue 07:27:04 PM 41.3500 -73.5500 143° Southeast 135 155 2,300 -947 Descending New TRACON
Tue 07:28:04 PM 41.3667 -73.5167 56° Northeast 111 128 1,200 -1,100 Descending New TRACON
Tue 07:30:00 PM 41.3715 -73.4822 114° Southeast  Level Estimated
Tue 07:37:00 PM 41.3715 -73.4822 114° Southeast  Level Estimated

Login

Don't have an account? Register now (free) for customized features, flight alerts, and more!